createdAt,value
2023-01-28T00:01:29.640Z,1.20
2023-01-28T00:03:56.997Z,1.10
2023-01-28T00:06:24.401Z,1.10
2023-01-28T00:08:51.715Z,1.10
2023-01-28T00:11:19.053Z,1.00
2023-01-28T00:13:46.499Z,1.00
2023-01-28T00:16:13.873Z,1.00
2023-01-28T00:18:41.571Z,1.10
2023-01-28T00:21:11.435Z,1.10
2023-01-28T00:23:39.416Z,1.10
2023-01-28T00:26:12.481Z,1.10
2023-01-28T00:28:43.536Z,1.10
2023-01-28T00:31:18.828Z,1.10
2023-01-28T00:33:47.403Z,1.10
2023-01-28T00:36:14.828Z,1.10
2023-01-28T00:38:42.649Z,1.10
2023-01-28T00:41:10.578Z,1.20
2023-01-28T00:43:38.266Z,1.20
2023-01-28T00:46:07.479Z,1.20
2023-01-28T00:48:35.763Z,1.10
2023-01-28T00:51:03.486Z,1.10
2023-01-28T00:53:31.103Z,1.10
2023-01-28T00:55:58.394Z,1.20
2023-01-28T00:58:25.710Z,1.20
2023-01-28T01:00:52.987Z,1.20
2023-01-28T01:03:20.339Z,1.20
2023-01-28T01:05:47.683Z,1.20
2023-01-28T01:08:15.000Z,1.20
2023-01-28T01:10:42.264Z,1.20
2023-01-28T01:13:10.188Z,1.10
2023-01-28T01:15:37.517Z,1.20
2023-01-28T01:18:04.970Z,1.20
2023-01-28T01:20:33.508Z,1.20
2023-01-28T01:23:00.809Z,1.20
2023-01-28T01:25:28.143Z,1.10
2023-01-28T01:27:55.452Z,1.10
2023-01-28T01:30:22.749Z,1.10
2023-01-28T01:32:50.104Z,1.10
2023-01-28T01:35:18.047Z,1.10
2023-01-28T01:37:45.757Z,1.10
2023-01-28T01:40:13.164Z,1.10
2023-01-28T01:42:40.477Z,1.00
2023-01-28T01:45:14.326Z,1.00
2023-01-28T01:48:07.273Z,1.00
2023-01-28T01:50:37.983Z,1.00
2023-01-28T01:53:09.259Z,1.00
2023-01-28T01:55:38.214Z,1.00
2023-01-28T01:58:08.418Z,1.10
2023-01-28T02:00:35.774Z,1.10
2023-01-28T02:03:03.095Z,1.10
2023-01-28T02:05:30.457Z,1.00
2023-01-28T02:08:20.816Z,1.00
2023-01-28T02:10:53.520Z,1.00
2023-01-28T02:13:22.939Z,1.00
2023-01-28T02:15:50.583Z,1.00
2023-01-28T02:18:18.007Z,1.00
2023-01-28T02:21:04.025Z,1.00
2023-01-28T02:24:08.965Z,1.10
2023-01-28T02:26:36.269Z,1.10
2023-01-28T02:29:20.616Z,1.10
2023-01-28T02:31:50.447Z,1.00
2023-01-28T02:34:43.307Z,1.00
2023-01-28T02:37:27.414Z,1.10
2023-01-28T02:40:01.407Z,1.10
2023-01-28T02:42:32.174Z,1.10
2023-01-28T02:44:59.532Z,1.10
2023-01-28T02:47:45.688Z,1.10
2023-01-28T02:50:17.987Z,1.20
2023-01-28T02:53:29.709Z,1.10
2023-01-28T02:56:40.701Z,1.10
2023-01-28T02:59:43.129Z,1.10
2023-01-28T03:02:27.967Z,1.10
2023-01-28T03:05:13.747Z,1.10
2023-01-28T03:07:41.196Z,1.10
2023-01-28T03:10:10.755Z,1.10
2023-01-28T03:12:58.013Z,1.10
2023-01-28T03:15:50.719Z,1.20
2023-01-28T03:18:39.555Z,1.20
2023-01-28T03:21:42.552Z,1.20
2023-01-28T03:24:31.253Z,1.20
2023-01-28T03:27:33.261Z,1.30
2023-01-28T03:30:48.574Z,1.30
2023-01-28T03:33:44.388Z,1.20
2023-01-28T03:36:29.975Z,1.20
2023-01-28T03:38:58.549Z,1.20
2023-01-28T03:41:26.181Z,1.30
2023-01-28T03:43:56.120Z,1.20
2023-01-28T03:46:23.598Z,1.20
2023-01-28T03:48:50.935Z,1.20
2023-01-28T03:51:18.475Z,1.20
2023-01-28T03:53:45.883Z,1.20
2023-01-28T03:56:19.531Z,1.20
2023-01-28T03:58:52.891Z,1.20
2023-01-28T04:01:20.760Z,1.10
2023-01-28T04:03:48.486Z,1.10
2023-01-28T04:06:20.455Z,1.10
2023-01-28T04:09:06.036Z,1.10
2023-01-28T04:11:48.927Z,1.20
2023-01-28T04:14:22.280Z,1.20
2023-01-28T04:16:56.818Z,1.20
2023-01-28T04:19:26.078Z,1.20
2023-01-28T04:21:55.080Z,1.20
2023-01-28T04:24:22.901Z,1.30
2023-01-28T04:26:50.481Z,1.20
2023-01-28T04:29:17.818Z,1.20
2023-01-28T04:31:45.253Z,1.30
2023-01-28T04:34:47.911Z,1.30
2023-01-28T04:37:26.290Z,1.20
2023-01-28T04:40:12.505Z,1.30
2023-01-28T04:42:56.999Z,1.30
2023-01-28T04:45:42.983Z,1.30
2023-01-28T04:48:34.828Z,1.30
2023-01-28T04:51:20.111Z,1.30
2023-01-28T04:54:06.423Z,1.40
2023-01-28T04:56:35.333Z,1.50
2023-01-28T04:59:03.856Z,1.40
2023-01-28T05:01:32.928Z,1.40
2023-01-28T05:04:05.426Z,1.40
2023-01-28T05:06:34.664Z,1.40
2023-01-28T05:09:07.388Z,1.30
2023-01-28T05:11:35.244Z,1.30
2023-01-28T05:14:05.571Z,1.30
2023-01-28T05:16:40.238Z,1.40
2023-01-28T05:19:07.967Z,1.40
2023-01-28T05:21:39.884Z,1.40
2023-01-28T05:24:15.805Z,1.40
2023-01-28T05:26:44.797Z,1.40
2023-01-28T05:29:12.260Z,1.40
2023-01-28T05:31:40.301Z,1.40
2023-01-28T05:34:08.497Z,1.30
2023-01-28T05:36:35.838Z,1.30
2023-01-28T05:39:10.863Z,1.30
2023-01-28T05:41:38.702Z,1.30
2023-01-28T05:44:06.802Z,1.30
2023-01-28T05:46:48.353Z,1.40
2023-01-28T05:49:41.542Z,1.40
2023-01-28T05:52:29.067Z,1.40
2023-01-28T05:54:57.163Z,1.30
2023-01-28T05:57:25.612Z,1.30
2023-01-28T05:59:53.016Z,1.30
2023-01-28T06:02:20.411Z,1.40
2023-01-28T06:04:47.834Z,1.50
2023-01-28T06:07:19.587Z,1.50
2023-01-28T06:09:48.482Z,1.60
2023-01-28T06:12:19.285Z,1.60
2023-01-28T06:15:10.055Z,1.50
2023-01-28T06:17:58.254Z,1.50
2023-01-28T06:20:32.424Z,1.50
2023-01-28T06:23:00.828Z,1.50
2023-01-28T06:25:28.320Z,1.50
2023-01-28T06:27:59.802Z,1.50
2023-01-28T06:30:27.290Z,1.50
2023-01-28T06:32:55.832Z,1.50
2023-01-28T06:35:23.430Z,1.50
2023-01-28T06:37:52.423Z,1.60
2023-01-28T06:40:19.891Z,1.60
2023-01-28T06:42:47.688Z,1.60
2023-01-28T06:45:15.123Z,1.60
2023-01-28T06:47:42.421Z,1.70
2023-01-28T06:50:10.511Z,1.70
2023-01-28T06:52:37.798Z,1.70
2023-01-28T06:55:05.525Z,1.80
2023-01-28T06:57:32.814Z,1.80
2023-01-28T07:00:00.125Z,1.80
2023-01-28T07:02:27.849Z,1.90
2023-01-28T07:04:55.217Z,1.80
2023-01-28T07:07:22.539Z,1.80
2023-01-28T07:09:49.841Z,1.80
2023-01-28T07:12:17.486Z,1.80
2023-01-28T07:14:44.787Z,1.80
2023-01-28T07:17:12.137Z,1.80
2023-01-28T07:19:39.599Z,1.80
2023-01-28T07:22:06.949Z,1.80
2023-01-28T07:24:34.916Z,1.80
2023-01-28T07:27:02.262Z,1.80
2023-01-28T07:29:29.677Z,1.80
2023-01-28T07:31:58.311Z,1.80
2023-01-28T07:34:25.691Z,1.80
2023-01-28T07:36:53.019Z,1.70
2023-01-28T07:39:20.316Z,1.70
2023-01-28T07:41:47.617Z,1.70
2023-01-28T07:44:32.002Z,1.70
2023-01-28T07:46:59.248Z,1.70
2023-01-28T07:49:26.546Z,1.70
2023-01-28T07:51:53.903Z,1.70
2023-01-28T07:54:21.231Z,1.70
2023-01-28T07:56:48.520Z,1.70
2023-01-28T07:59:15.976Z,1.70
2023-01-28T08:01:43.391Z,1.70
2023-01-28T08:04:10.834Z,1.70
2023-01-28T08:06:38.305Z,1.70
2023-01-28T08:09:08.085Z,1.80
2023-01-28T08:11:37.863Z,1.80
2023-01-28T08:14:05.328Z,1.90
2023-01-28T08:16:32.633Z,1.90
2023-01-28T08:18:59.976Z,1.90
2023-01-28T08:21:27.295Z,1.90
2023-01-28T08:23:55.279Z,1.90
2023-01-28T08:26:22.710Z,1.90
2023-01-28T08:28:51.509Z,1.80
2023-01-28T08:31:19.058Z,1.80
2023-01-28T08:33:46.459Z,1.80
2023-01-28T08:36:13.789Z,1.90
2023-01-28T08:38:41.186Z,2.00
2023-01-28T08:41:08.502Z,2.00
2023-01-28T08:43:35.824Z,2.00
2023-01-28T08:46:06.701Z,2.00
2023-01-28T08:48:34.049Z,2.00
2023-01-28T08:51:01.389Z,2.00
2023-01-28T08:53:28.679Z,2.10
2023-01-28T08:55:56.087Z,2.10
2023-01-28T08:58:23.501Z,2.20
2023-01-28T09:00:50.924Z,2.20
2023-01-28T09:03:18.359Z,2.20
2023-01-28T09:05:45.788Z,2.20
2023-01-28T09:08:14.529Z,2.30
2023-01-28T09:10:42.287Z,2.30
2023-01-28T09:13:11.525Z,2.40
2023-01-28T09:15:38.855Z,2.50
2023-01-28T09:18:06.203Z,2.50
2023-01-28T09:20:33.619Z,2.60
2023-01-28T09:23:01.422Z,2.50
2023-01-28T09:25:28.772Z,2.60
2023-01-28T09:27:56.232Z,2.60
2023-01-28T09:30:23.769Z,2.70
2023-01-28T09:32:51.877Z,2.70
2023-01-28T09:35:19.501Z,2.80
2023-01-28T09:37:47.207Z,2.80
2023-01-28T09:40:37.219Z,2.80
2023-01-28T09:43:27.534Z,2.90
2023-01-28T09:45:59.046Z,2.90
2023-01-28T09:48:38.512Z,2.90
2023-01-28T09:51:10.065Z,2.90
2023-01-28T09:53:41.179Z,2.90
2023-01-28T09:56:26.009Z,3.00
2023-01-28T09:58:53.341Z,3.10
2023-01-28T10:01:35.744Z,3.10
2023-01-28T10:04:09.409Z,3.20
2023-01-28T10:06:45.693Z,3.20
2023-01-28T10:09:41.288Z,3.30
2023-01-28T10:12:17.827Z,3.30
2023-01-28T10:15:30.355Z,3.40
2023-01-28T10:18:16.528Z,3.40
2023-01-28T10:20:50.039Z,3.40
2023-01-28T10:23:23.164Z,3.50
2023-01-28T10:25:50.567Z,3.50
2023-01-28T10:28:30.173Z,3.60
2023-01-28T10:30:57.624Z,3.70
2023-01-28T10:33:28.047Z,3.70
2023-01-28T10:35:56.038Z,3.60
2023-01-28T10:38:24.212Z,3.50
2023-01-28T10:40:51.629Z,3.40
2023-01-28T10:43:25.682Z,3.40
2023-01-28T10:46:09.550Z,3.40
2023-01-28T10:48:53.143Z,3.40
2023-01-28T10:51:34.296Z,3.50
2023-01-28T10:54:01.957Z,3.60
2023-01-28T10:56:32.787Z,3.60
2023-01-28T10:59:04.151Z,3.60
2023-01-28T11:01:45.595Z,3.60
2023-01-28T11:04:27.266Z,3.60
2023-01-28T11:06:57.727Z,3.70
2023-01-28T11:09:30.852Z,3.80
2023-01-28T11:11:59.050Z,3.80
2023-01-28T11:14:27.264Z,3.80
2023-01-28T11:16:55.979Z,3.90
2023-01-28T11:19:31.660Z,4.00
2023-01-28T11:21:59.557Z,4.00
2023-01-28T11:24:29.203Z,4.00
2023-01-28T11:26:57.719Z,4.00
2023-01-28T11:29:28.614Z,3.90
2023-01-28T11:31:55.968Z,3.90
2023-01-28T11:34:31.183Z,3.80
2023-01-28T11:37:12.611Z,3.80
2023-01-28T11:39:39.941Z,3.80
2023-01-28T11:42:20.245Z,3.80
2023-01-28T11:44:48.253Z,3.90
2023-01-28T11:47:59.783Z,3.90
2023-01-28T11:50:30.194Z,4.00
2023-01-28T11:53:32.636Z,4.00
2023-01-28T11:56:12.139Z,3.90
2023-01-28T11:58:50.040Z,3.90
2023-01-28T12:01:42.847Z,3.90
2023-01-28T12:04:21.445Z,4.00
2023-01-28T12:07:47.026Z,4.00
2023-01-28T12:10:26.244Z,4.00
2023-01-28T12:13:17.679Z,4.00
2023-01-28T12:16:29.459Z,4.00
2023-01-28T12:19:19.653Z,4.00
2023-01-28T12:22:16.379Z,3.90
2023-01-28T12:25:11.367Z,3.90
2023-01-28T12:28:03.184Z,3.80
2023-01-28T12:30:51.623Z,3.70
2023-01-28T12:33:49.850Z,3.70
2023-01-28T12:36:26.258Z,3.60
2023-01-28T12:39:08.610Z,3.50
2023-01-28T12:41:47.726Z,3.40
2023-01-28T12:44:24.865Z,3.30
2023-01-28T12:46:55.704Z,3.20
2023-01-28T12:49:35.793Z,3.10
2023-01-28T12:52:24.315Z,3.10
2023-01-28T12:55:16.481Z,3.00
2023-01-28T12:57:43.828Z,3.00
2023-01-28T13:00:30.402Z,3.00
2023-01-28T13:03:20.459Z,2.90
2023-01-28T13:05:52.671Z,2.80
2023-01-28T13:08:24.638Z,2.80
2023-01-28T13:10:52.803Z,2.70
2023-01-28T13:13:40.237Z,2.60
2023-01-28T13:16:08.657Z,2.70
2023-01-28T13:18:47.953Z,2.80
2023-01-28T13:21:24.354Z,2.90
2023-01-28T13:24:12.816Z,2.90
2023-01-28T13:26:46.774Z,2.90
2023-01-28T13:29:21.639Z,2.80
2023-01-28T13:31:52.308Z,2.80
2023-01-28T13:34:40.542Z,2.90
2023-01-28T13:37:29.801Z,2.90
2023-01-28T13:40:03.586Z,3.00
2023-01-28T13:42:31.391Z,3.00
2023-01-28T13:45:21.212Z,3.10
2023-01-28T13:48:26.370Z,3.20
2023-01-28T13:50:54.236Z,3.20
2023-01-28T13:53:35.292Z,3.10
2023-01-28T13:56:04.473Z,3.10
2023-01-28T13:58:40.910Z,3.00
2023-01-28T14:01:20.109Z,3.10
2023-01-28T14:04:05.255Z,3.10
2023-01-28T14:06:50.849Z,3.00
2023-01-28T14:09:56.277Z,3.00
2023-01-28T14:12:32.830Z,2.90
2023-01-28T14:15:29.190Z,2.80
2023-01-28T14:17:57.603Z,2.80
2023-01-28T14:20:28.012Z,2.80
2023-01-28T14:23:02.025Z,2.80
2023-01-28T14:25:49.581Z,2.80
2023-01-28T14:28:25.597Z,2.80
2023-01-28T14:30:58.569Z,2.80
2023-01-28T14:33:25.933Z,2.90
2023-01-28T14:35:53.281Z,2.90
2023-01-28T14:38:21.535Z,2.90
2023-01-28T14:40:52.699Z,2.90
2023-01-28T14:43:24.148Z,2.90
2023-01-28T14:45:57.589Z,2.90
2023-01-28T14:48:37.012Z,2.80
2023-01-28T14:51:30.310Z,2.70
2023-01-28T14:54:19.193Z,2.70
2023-01-28T14:57:01.236Z,2.70
2023-01-28T14:59:45.033Z,2.70
2023-01-28T15:02:19.791Z,2.80
2023-01-28T15:04:47.266Z,2.80
2023-01-28T15:07:20.623Z,2.80
2023-01-28T15:09:59.165Z,2.90
2023-01-28T15:12:26.623Z,3.00
2023-01-28T15:14:53.965Z,3.10
2023-01-28T15:17:26.706Z,3.10
2023-01-28T15:19:55.827Z,3.10
2023-01-28T15:22:28.232Z,3.20
2023-01-28T15:24:55.860Z,3.20
2023-01-28T15:27:28.639Z,3.10
2023-01-28T15:29:57.567Z,3.00
2023-01-28T15:32:30.312Z,3.00
2023-01-28T15:35:00.152Z,3.00
2023-01-28T15:37:27.495Z,2.90
2023-01-28T15:40:08.543Z,3.00
2023-01-28T15:42:35.942Z,3.00
2023-01-28T15:45:04.533Z,3.00
2023-01-28T15:47:33.585Z,3.10
2023-01-28T15:50:07.888Z,3.30
2023-01-28T15:52:37.110Z,3.50
2023-01-28T15:55:04.964Z,4.20
2023-01-28T15:57:34.257Z,4.10
2023-01-28T16:00:08.611Z,3.90
2023-01-28T16:02:47.944Z,3.70
2023-01-28T16:05:25.819Z,3.60
2023-01-28T16:07:53.163Z,3.60
2023-01-28T16:10:27.760Z,3.60
2023-01-28T16:13:00.707Z,3.50
2023-01-28T16:15:28.063Z,3.40
2023-01-28T16:17:55.464Z,3.30
2023-01-28T16:20:27.274Z,3.20
2023-01-28T16:22:55.804Z,3.00
2023-01-28T16:25:29.046Z,3.00
2023-01-28T16:28:00.503Z,3.00
2023-01-28T16:30:28.285Z,2.90
2023-01-28T16:32:55.713Z,2.90
2023-01-28T16:35:24.968Z,2.80
2023-01-28T16:37:52.466Z,2.70
2023-01-28T16:40:21.976Z,2.60
2023-01-28T16:42:49.900Z,2.60
2023-01-28T16:45:18.976Z,2.50
2023-01-28T16:47:46.467Z,2.50
2023-01-28T16:50:14.276Z,2.50
2023-01-28T16:52:42.407Z,2.50
2023-01-28T16:55:14.021Z,2.40
2023-01-28T16:57:41.494Z,2.40
2023-01-28T17:00:19.778Z,2.40
2023-01-28T17:02:47.217Z,2.30
2023-01-28T17:05:17.698Z,2.30
2023-01-28T17:07:46.234Z,2.30
2023-01-28T17:10:13.981Z,2.30
2023-01-28T17:12:41.564Z,2.30
2023-01-28T17:15:09.475Z,2.30
2023-01-28T17:17:36.847Z,2.30
2023-01-28T17:20:06.855Z,2.30
2023-01-28T17:22:34.191Z,2.30
2023-01-28T17:25:01.525Z,2.20
2023-01-28T17:27:28.857Z,2.20
2023-01-28T17:29:56.233Z,2.10
2023-01-28T17:32:23.604Z,2.10
2023-01-28T17:34:50.945Z,2.10
2023-01-28T17:37:18.323Z,2.10
2023-01-28T17:39:45.673Z,2.20
2023-01-28T17:42:13.116Z,2.20
2023-01-28T17:44:40.615Z,2.20
2023-01-28T17:47:07.893Z,2.20
2023-01-28T17:49:35.484Z,2.20
2023-01-28T17:52:02.954Z,2.20
2023-01-28T17:54:30.295Z,2.10
2023-01-28T17:56:58.430Z,2.20
2023-01-28T17:59:25.992Z,2.20
2023-01-28T18:01:54.706Z,2.20
2023-01-28T18:04:22.096Z,2.30
2023-01-28T18:06:51.625Z,2.30
2023-01-28T18:09:19.105Z,2.30
2023-01-28T18:11:46.480Z,2.40
2023-01-28T18:14:14.006Z,2.40
2023-01-28T18:16:41.390Z,2.40
2023-01-28T18:19:10.302Z,2.40
2023-01-28T18:21:52.079Z,2.40
2023-01-28T18:24:24.485Z,2.40
2023-01-28T18:26:52.297Z,2.40
2023-01-28T18:29:20.927Z,2.40
2023-01-28T18:31:48.852Z,2.40
2023-01-28T18:34:17.311Z,2.40
2023-01-28T18:36:44.817Z,2.40
2023-01-28T18:39:15.487Z,2.40
2023-01-28T18:41:42.802Z,2.40
2023-01-28T18:44:11.098Z,2.30
2023-01-28T18:46:38.468Z,2.30
2023-01-28T18:49:05.800Z,2.40
2023-01-28T18:51:33.141Z,2.30
2023-01-28T18:54:02.111Z,2.30
2023-01-28T18:56:29.681Z,2.20
2023-01-28T18:59:00.827Z,2.30
2023-01-28T19:01:28.760Z,2.30
2023-01-28T19:03:56.749Z,2.30
2023-01-28T19:06:24.483Z,2.30
2023-01-28T19:08:56.386Z,2.30
2023-01-28T19:11:24.368Z,2.30
2023-01-28T19:13:54.190Z,2.30
2023-01-28T19:16:22.216Z,2.20
2023-01-28T19:18:57.201Z,2.10
2023-01-28T19:21:25.048Z,2.10
2023-01-28T19:24:00.252Z,2.10
2023-01-28T19:26:28.161Z,2.10
2023-01-28T19:28:56.195Z,2.20
2023-01-28T19:31:24.094Z,2.10
2023-01-28T19:33:58.937Z,2.10
2023-01-28T19:36:30.839Z,2.10
2023-01-28T19:39:30.399Z,2.10
2023-01-28T19:42:02.242Z,2.20
2023-01-28T19:44:29.819Z,2.10
2023-01-28T19:46:57.221Z,2.20
2023-01-28T19:49:24.504Z,2.20
2023-01-28T19:51:51.967Z,2.20
2023-01-28T19:54:19.329Z,2.20
2023-01-28T19:56:46.672Z,2.30
2023-01-28T19:59:15.075Z,2.30
2023-01-28T20:01:42.585Z,2.40
2023-01-28T20:04:09.894Z,2.40
2023-01-28T20:06:37.284Z,2.40
2023-01-28T20:09:13.317Z,2.40
2023-01-28T20:11:40.825Z,2.50
2023-01-28T20:14:08.185Z,2.50
2023-01-28T20:16:35.930Z,2.50
2023-01-28T20:19:08.279Z,2.50
2023-01-28T20:21:38.063Z,2.50
2023-01-28T20:24:37.597Z,2.50
2023-01-28T20:27:06.698Z,2.50
2023-01-28T20:29:48.784Z,2.50
2023-01-28T20:32:20.202Z,2.40
2023-01-28T20:34:55.437Z,2.50
2023-01-28T20:37:22.805Z,2.40
2023-01-28T20:39:51.168Z,2.50
2023-01-28T20:42:18.533Z,2.50
2023-01-28T20:44:49.527Z,2.50
2023-01-28T20:47:16.834Z,2.60
2023-01-28T20:49:44.241Z,2.60
2023-01-28T20:52:15.541Z,2.60
2023-01-28T20:54:47.885Z,2.60
2023-01-28T20:57:18.552Z,2.60
2023-01-28T20:59:46.421Z,2.60
2023-01-28T21:02:14.053Z,2.50
2023-01-28T21:04:46.989Z,2.60
2023-01-28T21:07:24.695Z,2.60
2023-01-28T21:09:53.214Z,2.60
2023-01-28T21:12:20.580Z,2.60
2023-01-28T21:14:50.085Z,2.60
2023-01-28T21:17:17.421Z,2.60
2023-01-28T21:19:50.492Z,2.60
2023-01-28T21:25:24.822Z,2.60
2023-01-28T21:27:56.597Z,2.60
2023-01-28T21:30:23.936Z,2.60
2023-01-28T21:32:51.783Z,2.60
2023-01-28T21:35:25.110Z,2.60
2023-01-28T21:37:53.626Z,2.60
2023-01-28T21:40:20.912Z,2.60
2023-01-28T21:42:48.212Z,2.60
2023-01-28T21:45:15.622Z,2.70
2023-01-28T21:47:42.938Z,2.60
2023-01-28T21:50:11.013Z,2.70
2023-01-28T21:52:38.555Z,2.60
2023-01-28T21:55:06.605Z,2.60
2023-01-28T21:57:36.870Z,2.70
2023-01-28T22:00:09.333Z,2.70
2023-01-28T22:02:39.316Z,2.70
2023-01-28T22:05:07.021Z,2.70
2023-01-28T22:07:34.543Z,2.80
2023-01-28T22:10:01.849Z,2.70
2023-01-28T22:12:29.283Z,2.70
2023-01-28T22:14:56.707Z,2.70
2023-01-28T22:17:25.022Z,2.70
2023-01-28T22:19:52.493Z,2.60
2023-01-28T22:22:19.821Z,2.60
2023-01-28T22:24:47.490Z,2.60
2023-01-28T22:27:15.111Z,2.70
2023-01-28T22:29:42.440Z,2.70
2023-01-28T22:32:09.897Z,2.60
2023-01-28T22:34:38.330Z,2.60
2023-01-28T22:37:07.234Z,2.60
2023-01-28T22:39:34.602Z,2.60
2023-01-28T22:42:01.926Z,2.60
2023-01-28T22:44:29.399Z,2.60
2023-01-28T22:46:56.918Z,2.60
2023-01-28T22:49:26.657Z,2.60
2023-01-28T22:51:53.959Z,2.60
2023-01-28T22:54:21.291Z,2.50
2023-01-28T22:56:48.624Z,2.50
2023-01-28T22:59:16.118Z,2.50
2023-01-28T23:01:43.517Z,2.40
2023-01-28T23:04:10.910Z,2.40
2023-01-28T23:06:38.290Z,2.40
2023-01-28T23:09:05.789Z,2.40
2023-01-28T23:11:33.336Z,2.40
2023-01-28T23:14:20.564Z,2.40
2023-01-28T23:17:06.859Z,2.30
2023-01-28T23:20:13.163Z,2.30
2023-01-28T23:22:59.032Z,2.30
2023-01-28T23:25:26.386Z,2.30
2023-01-28T23:27:53.724Z,2.30
2023-01-28T23:30:25.200Z,2.30
2023-01-28T23:32:54.802Z,2.20
2023-01-28T23:35:22.155Z,2.20
2023-01-28T23:37:49.457Z,2.10
2023-01-28T23:40:18.122Z,2.10
2023-01-28T23:42:49.850Z,2.10
2023-01-28T23:45:18.064Z,2.00
2023-01-28T23:47:45.756Z,2.00
2023-01-28T23:50:13.177Z,2.00
2023-01-28T23:52:41.303Z,2.00
2023-01-28T23:55:09.227Z,2.00
2023-01-28T23:57:39.951Z,2.00
